sensor_id;sensor_type;location;lat;lon;timestamp;pressure;altitude;pressure_sealevel;temperature
71807;BMP280;59655;42.590;23.364;2023-07-24T00:02:13;91844.69;;;22.29
71807;BMP280;59655;42.590;23.364;2023-07-24T00:04:39;91845.97;;;22.28
71807;BMP280;59655;42.590;23.364;2023-07-24T00:07:05;91850.22;;;22.17
71807;BMP280;59655;42.590;23.364;2023-07-24T00:09:30;91844.84;;;22.04
71807;BMP280;59655;42.590;23.364;2023-07-24T00:11:56;91844.41;;;21.80
71807;BMP280;59655;42.590;23.364;2023-07-24T00:14:21;91837.97;;;22.01
71807;BMP280;59655;42.590;23.364;2023-07-24T00:16:47;91835.03;;;22.10
71807;BMP280;59655;42.590;23.364;2023-07-24T00:19:12;91837.75;;;22.10
71807;BMP280;59655;42.590;23.364;2023-07-24T00:21:37;91832.53;;;22.14
71807;BMP280;59655;42.590;23.364;2023-07-24T00:24:03;91830.00;;;22.18
71807;BMP280;59655;42.590;23.364;2023-07-24T00:26:28;91833.38;;;22.19
71807;BMP280;59655;42.590;23.364;2023-07-24T00:28:54;91828.06;;;22.21
71807;BMP280;59655;42.590;23.364;2023-07-24T00:31:19;91829.50;;;22.22
71807;BMP280;59655;42.590;23.364;2023-07-24T00:33:45;91825.78;;;22.15
71807;BMP280;59655;42.590;23.364;2023-07-24T00:36:10;91829.22;;;22.16
71807;BMP280;59655;42.590;23.364;2023-07-24T00:38:35;91827.94;;;22.03
71807;BMP280;59655;42.590;23.364;2023-07-24T00:41:01;91833.78;;;21.84
71807;BMP280;59655;42.590;23.364;2023-07-24T00:43:26;91831.28;;;21.88
71807;BMP280;59655;42.590;23.364;2023-07-24T00:45:52;91827.16;;;22.01
71807;BMP280;59655;42.590;23.364;2023-07-24T00:48:19;91822.44;;;21.71
71807;BMP280;59655;42.590;23.364;2023-07-24T00:50:45;91826.38;;;21.84
71807;BMP280;59655;42.590;23.364;2023-07-24T00:53:11;91826.75;;;21.92
71807;BMP280;59655;42.590;23.364;2023-07-24T00:55:38;91825.56;;;21.95
71807;BMP280;59655;42.590;23.364;2023-07-24T00:58:04;91828.38;;;21.97
71807;BMP280;59655;42.590;23.364;2023-07-24T01:00:30;91826.44;;;22.00
71807;BMP280;59655;42.590;23.364;2023-07-24T01:02:56;91826.03;;;22.06
71807;BMP280;59655;42.590;23.364;2023-07-24T01:05:22;91819.94;;;22.05
71807;BMP280;59655;42.590;23.364;2023-07-24T01:07:50;91819.63;;;21.99
71807;BMP280;59655;42.590;23.364;2023-07-24T01:10:15;91814.53;;;22.05
71807;BMP280;59655;42.590;23.364;2023-07-24T01:15:25;91813.78;;;21.89
71807;BMP280;59655;42.590;23.364;2023-07-24T01:17:59;91816.66;;;21.93
71807;BMP280;59655;42.590;23.364;2023-07-24T01:20:27;91814.75;;;21.95
71807;BMP280;59655;42.590;23.364;2023-07-24T01:25:35;91808.16;;;21.85
71807;BMP280;59655;42.590;23.364;2023-07-24T01:28:09;91818.19;;;21.82
71807;BMP280;59655;42.590;23.364;2023-07-24T01:30:34;91816.47;;;21.75
71807;BMP280;59655;42.590;23.364;2023-07-24T01:32:59;91813.94;;;21.49
71807;BMP280;59655;42.590;23.364;2023-07-24T01:35:26;91807.22;;;21.64
71807;BMP280;59655;42.590;23.364;2023-07-24T01:37:53;91805.41;;;21.69
71807;BMP280;59655;42.590;23.364;2023-07-24T01:40:19;91804.72;;;21.68
71807;BMP280;59655;42.590;23.364;2023-07-24T01:42:45;91802.59;;;21.67
71807;BMP280;59655;42.590;23.364;2023-07-24T01:45:11;91805.31;;;21.67
71807;BMP280;59655;42.590;23.364;2023-07-24T01:47:37;91808.63;;;21.65
71807;BMP280;59655;42.590;23.364;2023-07-24T01:50:03;91808.81;;;21.56
71807;BMP280;59655;42.590;23.364;2023-07-24T01:52:28;91812.44;;;21.46
71807;BMP280;59655;42.590;23.364;2023-07-24T01:54:54;91810.25;;;21.43
71807;BMP280;59655;42.590;23.364;2023-07-24T01:57:19;91818.59;;;21.33
71807;BMP280;59655;42.590;23.364;2023-07-24T01:59:45;91814.28;;;21.28
71807;BMP280;59655;42.590;23.364;2023-07-24T02:02:10;91815.97;;;21.08
71807;BMP280;59655;42.590;23.364;2023-07-24T02:04:35;91819.84;;;20.91
71807;BMP280;59655;42.590;23.364;2023-07-24T02:07:01;91813.56;;;21.00
71807;BMP280;59655;42.590;23.364;2023-07-24T02:09:26;91819.75;;;21.02
71807;BMP280;59655;42.590;23.364;2023-07-24T02:11:52;91815.34;;;21.09
71807;BMP280;59655;42.590;23.364;2023-07-24T02:14:19;91817.47;;;21.24
71807;BMP280;59655;42.590;23.364;2023-07-24T02:16:46;91815.97;;;21.35
71807;BMP280;59655;42.590;23.364;2023-07-24T02:19:11;91813.38;;;21.37
71807;BMP280;59655;42.590;23.364;2023-07-24T02:21:36;91809.63;;;21.44
71807;BMP280;59655;42.590;23.364;2023-07-24T02:24:02;91806.63;;;21.38
71807;BMP280;59655;42.590;23.364;2023-07-24T02:26:27;91798.25;;;21.32
71807;BMP280;59655;42.590;23.364;2023-07-24T02:28:53;91805.84;;;21.36
71807;BMP280;59655;42.590;23.364;2023-07-24T02:31:19;91807.06;;;21.33
71807;BMP280;59655;42.590;23.364;2023-07-24T02:33:44;91796.56;;;21.39
71807;BMP280;59655;42.590;23.364;2023-07-24T02:36:10;91792.34;;;21.36
71807;BMP280;59655;42.590;23.364;2023-07-24T02:38:35;91795.56;;;21.32
71807;BMP280;59655;42.590;23.364;2023-07-24T02:41:00;91804.56;;;21.23
71807;BMP280;59655;42.590;23.364;2023-07-24T02:43:26;91798.56;;;21.24
71807;BMP280;59655;42.590;23.364;2023-07-24T02:45:51;91802.69;;;21.25
71807;BMP280;59655;42.590;23.364;2023-07-24T02:48:17;91805.06;;;21.19
71807;BMP280;59655;42.590;23.364;2023-07-24T02:50:42;91791.25;;;21.27
71807;BMP280;59655;42.590;23.364;2023-07-24T02:53:08;91802.50;;;21.21
71807;BMP280;59655;42.590;23.364;2023-07-24T02:55:33;91801.06;;;21.20
71807;BMP280;59655;42.590;23.364;2023-07-24T02:57:58;91799.53;;;21.17
71807;BMP280;59655;42.590;23.364;2023-07-24T03:00:24;91799.47;;;21.15
71807;BMP280;59655;42.590;23.364;2023-07-24T03:02:50;91800.88;;;21.16
71807;BMP280;59655;42.590;23.364;2023-07-24T03:05:15;91796.38;;;21.07
71807;BMP280;59655;42.590;23.364;2023-07-24T03:07:40;91795.03;;;20.81
71807;BMP280;59655;42.590;23.364;2023-07-24T03:10:06;91797.25;;;20.98
71807;BMP280;59655;42.590;23.364;2023-07-24T03:12:33;91796.06;;;21.01
71807;BMP280;59655;42.590;23.364;2023-07-24T03:14:58;91790.66;;;21.01
71807;BMP280;59655;42.590;23.364;2023-07-24T03:17:23;91790.78;;;21.03
71807;BMP280;59655;42.590;23.364;2023-07-24T03:19:49;91795.19;;;20.96
71807;BMP280;59655;42.590;23.364;2023-07-24T03:22:15;91789.28;;;21.00
71807;BMP280;59655;42.590;23.364;2023-07-24T03:24:40;91786.47;;;20.98
71807;BMP280;59655;42.590;23.364;2023-07-24T03:27:05;91779.66;;;20.97
71807;BMP280;59655;42.590;23.364;2023-07-24T03:29:31;91780.38;;;20.97
71807;BMP280;59655;42.590;23.364;2023-07-24T03:31:56;91787.56;;;20.93
71807;BMP280;59655;42.590;23.364;2023-07-24T03:34:22;91782.09;;;20.91
71807;BMP280;59655;42.590;23.364;2023-07-24T03:36:47;91780.88;;;20.94
71807;BMP280;59655;42.590;23.364;2023-07-24T03:39:13;91780.47;;;20.99
71807;BMP280;59655;42.590;23.364;2023-07-24T03:41:39;91797.25;;;20.98
71807;BMP280;59655;42.590;23.364;2023-07-24T03:44:04;91788.88;;;20.92
71807;BMP280;59655;42.590;23.364;2023-07-24T03:46:32;91792.53;;;20.85
71807;BMP280;59655;42.590;23.364;2023-07-24T03:48:57;91793.97;;;20.86
71807;BMP280;59655;42.590;23.364;2023-07-24T03:51:23;91803.84;;;20.81
71807;BMP280;59655;42.590;23.364;2023-07-24T03:53:48;91801.84;;;20.82
71807;BMP280;59655;42.590;23.364;2023-07-24T03:56:13;91800.91;;;20.77
71807;BMP280;59655;42.590;23.364;2023-07-24T03:58:40;91803.13;;;20.81
71807;BMP280;59655;42.590;23.364;2023-07-24T04:01:06;91809.47;;;20.99
71807;BMP280;59655;42.590;23.364;2023-07-24T04:03:31;91804.75;;;20.99
71807;BMP280;59655;42.590;23.364;2023-07-24T04:05:57;91799.88;;;20.96
71807;BMP280;59655;42.590;23.364;2023-07-24T04:08:22;91797.56;;;21.04
71807;BMP280;59655;42.590;23.364;2023-07-24T04:10:47;91796.16;;;21.03
71807;BMP280;59655;42.590;23.364;2023-07-24T04:13:13;91795.97;;;20.85
71807;BMP280;59655;42.590;23.364;2023-07-24T04:15:38;91804.56;;;20.95
71807;BMP280;59655;42.590;23.364;2023-07-24T04:18:04;91805.66;;;20.90
71807;BMP280;59655;42.590;23.364;2023-07-24T04:20:30;91806.59;;;20.69
71807;BMP280;59655;42.590;23.364;2023-07-24T04:22:55;91806.13;;;20.73
71807;BMP280;59655;42.590;23.364;2023-07-24T04:25:21;91807.94;;;20.82
71807;BMP280;59655;42.590;23.364;2023-07-24T04:27:46;91807.34;;;20.84
71807;BMP280;59655;42.590;23.364;2023-07-24T04:30:11;91818.16;;;20.97
71807;BMP280;59655;42.590;23.364;2023-07-24T04:32:37;91812.53;;;20.93
71807;BMP280;59655;42.590;23.364;2023-07-24T04:35:02;91811.25;;;20.94
71807;BMP280;59655;42.590;23.364;2023-07-24T04:37:28;91809.06;;;21.05
71807;BMP280;59655;42.590;23.364;2023-07-24T04:39:53;91802.78;;;21.14
71807;BMP280;59655;42.590;23.364;2023-07-24T04:42:19;91806.97;;;21.17
71807;BMP280;59655;42.590;23.364;2023-07-24T04:44:44;91804.16;;;21.15
71807;BMP280;59655;42.590;23.364;2023-07-24T04:47:09;91803.28;;;21.24
71807;BMP280;59655;42.590;23.364;2023-07-24T04:49:35;91808.09;;;21.25
71807;BMP280;59655;42.590;23.364;2023-07-24T04:52:00;91822.38;;;21.28
71807;BMP280;59655;42.590;23.364;2023-07-24T04:54:26;91815.53;;;21.27
71807;BMP280;59655;42.590;23.364;2023-07-24T04:56:51;91821.09;;;21.29
71807;BMP280;59655;42.590;23.364;2023-07-24T04:59:17;91815.69;;;21.29
71807;BMP280;59655;42.590;23.364;2023-07-24T05:01:42;91812.47;;;21.33
71807;BMP280;59655;42.590;23.364;2023-07-24T05:04:07;91826.16;;;21.37
71807;BMP280;59655;42.590;23.364;2023-07-24T05:06:33;91820.13;;;21.38
71807;BMP280;59655;42.590;23.364;2023-07-24T05:09:00;91818.66;;;21.35
71807;BMP280;59655;42.590;23.364;2023-07-24T05:11:26;91815.25;;;21.35
71807;BMP280;59655;42.590;23.364;2023-07-24T05:13:51;91820.88;;;21.39
71807;BMP280;59655;42.590;23.364;2023-07-24T05:16:16;91817.25;;;21.48
71807;BMP280;59655;42.590;23.364;2023-07-24T05:18:42;91820.66;;;21.48
71807;BMP280;59655;42.590;23.364;2023-07-24T05:21:07;91812.66;;;21.50
71807;BMP280;59655;42.590;23.364;2023-07-24T05:23:33;91814.94;;;21.56
71807;BMP280;59655;42.590;23.364;2023-07-24T05:25:59;91821.94;;;21.61
71807;BMP280;59655;42.590;23.364;2023-07-24T05:28:28;91820.03;;;21.64
71807;BMP280;59655;42.590;23.364;2023-07-24T05:30:54;91826.41;;;21.70
71807;BMP280;59655;42.590;23.364;2023-07-24T05:33:20;91823.53;;;21.66
71807;BMP280;59655;42.590;23.364;2023-07-24T05:35:45;91823.63;;;21.68
71807;BMP280;59655;42.590;23.364;2023-07-24T05:38:11;91823.72;;;21.70
71807;BMP280;59655;42.590;23.364;2023-07-24T05:40:36;91825.75;;;21.70
71807;BMP280;59655;42.590;23.364;2023-07-24T05:43:01;91819.91;;;21.75
71807;BMP280;59655;42.590;23.364;2023-07-24T05:45:27;91818.09;;;21.80
71807;BMP280;59655;42.590;23.364;2023-07-24T05:47:53;91819.78;;;21.87
71807;BMP280;59655;42.590;23.364;2023-07-24T05:50:18;91817.78;;;21.88
71807;BMP280;59655;42.590;23.364;2023-07-24T05:52:44;91813.84;;;21.91
71807;BMP280;59655;42.590;23.364;2023-07-24T05:55:09;91812.56;;;21.92
71807;BMP280;59655;42.590;23.364;2023-07-24T05:57:35;91814.03;;;21.95
71807;BMP280;59655;42.590;23.364;2023-07-24T06:00:04;91798.53;;;21.95
71807;BMP280;59655;42.590;23.364;2023-07-24T06:02:30;91804.72;;;21.98
71807;BMP280;59655;42.590;23.364;2023-07-24T06:04:56;91794.00;;;22.00
71807;BMP280;59655;42.590;23.364;2023-07-24T06:07:21;91795.50;;;22.03
71807;BMP280;59655;42.590;23.364;2023-07-24T06:09:47;91795.69;;;22.07
71807;BMP280;59655;42.590;23.364;2023-07-24T06:12:13;91793.78;;;22.10
71807;BMP280;59655;42.590;23.364;2023-07-24T06:14:38;91792.06;;;22.16
71807;BMP280;59655;42.590;23.364;2023-07-24T06:17:03;91790.84;;;22.19
71807;BMP280;59655;42.590;23.364;2023-07-24T06:19:29;91793.81;;;22.26
71807;BMP280;59655;42.590;23.364;2023-07-24T06:21:55;91798.06;;;22.31
71807;BMP280;59655;42.590;23.364;2023-07-24T06:24:20;91794.25;;;22.36
71807;BMP280;59655;42.590;23.364;2023-07-24T06:26:46;91798.56;;;22.41
71807;BMP280;59655;42.590;23.364;2023-07-24T06:29:11;91801.34;;;22.43
71807;BMP280;59655;42.590;23.364;2023-07-24T06:31:37;91798.03;;;22.44
71807;BMP280;59655;42.590;23.364;2023-07-24T06:34:02;91799.50;;;22.47
71807;BMP280;59655;42.590;23.364;2023-07-24T06:36:28;91795.69;;;22.53
71807;BMP280;59655;42.590;23.364;2023-07-24T06:38:53;91801.88;;;22.55
71807;BMP280;59655;42.590;23.364;2023-07-24T06:41:18;91792.72;;;22.62
71807;BMP280;59655;42.590;23.364;2023-07-24T06:43:46;91803.63;;;22.64
71807;BMP280;59655;42.590;23.364;2023-07-24T06:46:11;91799.59;;;22.65
71807;BMP280;59655;42.590;23.364;2023-07-24T06:48:37;91800.81;;;22.62
71807;BMP280;59655;42.590;23.364;2023-07-24T06:51:02;91796.81;;;22.63
71807;BMP280;59655;42.590;23.364;2023-07-24T06:53:27;91791.56;;;22.67
71807;BMP280;59655;42.590;23.364;2023-07-24T06:55:53;91805.66;;;22.64
71807;BMP280;59655;42.590;23.364;2023-07-24T06:58:18;91805.72;;;22.66
71807;BMP280;59655;42.590;23.364;2023-07-24T07:00:44;91795.06;;;22.70
71807;BMP280;59655;42.590;23.364;2023-07-24T07:03:09;91805.28;;;22.71
71807;BMP280;59655;42.590;23.364;2023-07-24T07:05:34;91814.81;;;22.72
71807;BMP280;59655;42.590;23.364;2023-07-24T07:08:00;91812.34;;;22.79
71807;BMP280;59655;42.590;23.364;2023-07-24T07:10:25;91803.53;;;22.78
71807;BMP280;59655;42.590;23.364;2023-07-24T07:12:51;91802.84;;;22.78
71807;BMP280;59655;42.590;23.364;2023-07-24T07:15:16;91813.94;;;22.84
71807;BMP280;59655;42.590;23.364;2023-07-24T07:17:41;91807.19;;;22.85
71807;BMP280;59655;42.590;23.364;2023-07-24T07:20:07;91807.38;;;22.89
71807;BMP280;59655;42.590;23.364;2023-07-24T07:22:33;91807.19;;;22.85
71807;BMP280;59655;42.590;23.364;2023-07-24T07:24:58;91808.75;;;22.90
71807;BMP280;59655;42.590;23.364;2023-07-24T07:27:23;91808.88;;;22.92
71807;BMP280;59655;42.590;23.364;2023-07-24T07:29:49;91801.53;;;22.94
71807;BMP280;59655;42.590;23.364;2023-07-24T07:32:14;91801.69;;;22.99
71807;BMP280;59655;42.590;23.364;2023-07-24T07:34:40;91812.69;;;23.03
71807;BMP280;59655;42.590;23.364;2023-07-24T07:37:05;91805.34;;;23.05
71807;BMP280;59655;42.590;23.364;2023-07-24T07:39:31;91813.63;;;23.09
71807;BMP280;59655;42.590;23.364;2023-07-24T07:41:57;91805.69;;;23.13
71807;BMP280;59655;42.590;23.364;2023-07-24T07:46:48;91806.31;;;23.12
71807;BMP280;59655;42.590;23.364;2023-07-24T07:51:38;91819.41;;;23.17
71807;BMP280;59655;42.590;23.364;2023-07-24T07:54:04;91812.69;;;23.18
71807;BMP280;59655;42.590;23.364;2023-07-24T07:56:29;91817.47;;;23.20
71807;BMP280;59655;42.590;23.364;2023-07-24T07:58:55;91821.03;;;23.25
71807;BMP280;59655;42.590;23.364;2023-07-24T08:01:20;91808.97;;;23.28
71807;BMP280;59655;42.590;23.364;2023-07-24T08:03:46;91817.19;;;23.30
71807;BMP280;59655;42.590;23.364;2023-07-24T08:06:11;91822.69;;;23.32
71807;BMP280;59655;42.590;23.364;2023-07-24T08:08:37;91820.66;;;23.32
71807;BMP280;59655;42.590;23.364;2023-07-24T08:11:06;91820.16;;;23.36
71807;BMP280;59655;42.590;23.364;2023-07-24T08:13:35;91819.53;;;23.37
71807;BMP280;59655;42.590;23.364;2023-07-24T08:16:01;91811.50;;;23.39
71807;BMP280;59655;42.590;23.364;2023-07-24T08:18:31;91816.97;;;23.41
71807;BMP280;59655;42.590;23.364;2023-07-24T08:20:57;91814.25;;;23.41
71807;BMP280;59655;42.590;23.364;2023-07-24T08:23:22;91810.25;;;23.42
71807;BMP280;59655;42.590;23.364;2023-07-24T08:25:54;91812.34;;;23.44
71807;BMP280;59655;42.590;23.364;2023-07-24T08:28:21;91814.44;;;23.45
71807;BMP280;59655;42.590;23.364;2023-07-24T08:30:50;91802.38;;;23.49
71807;BMP280;59655;42.590;23.364;2023-07-24T08:33:20;91802.47;;;23.51
71807;BMP280;59655;42.590;23.364;2023-07-24T08:35:46;91800.34;;;23.49
71807;BMP280;59655;42.590;23.364;2023-07-24T08:38:11;91794.94;;;23.49
71807;BMP280;59655;42.590;23.364;2023-07-24T08:40:37;91795.03;;;23.51
71807;BMP280;59655;42.590;23.364;2023-07-24T08:43:03;91793.72;;;23.52
71807;BMP280;59655;42.590;23.364;2023-07-24T08:45:29;91797.25;;;23.57
71807;BMP280;59655;42.590;23.364;2023-07-24T08:47:56;91781.69;;;23.57
71807;BMP280;59655;42.590;23.364;2023-07-24T08:50:22;91782.50;;;23.60
71807;BMP280;59655;42.590;23.364;2023-07-24T08:52:48;91781.16;;;23.61
71807;BMP280;59655;42.590;23.364;2023-07-24T08:55:13;91787.22;;;23.59
71807;BMP280;59655;42.590;23.364;2023-07-24T08:57:39;91788.06;;;23.64
71807;BMP280;59655;42.590;23.364;2023-07-24T09:00:05;91789.44;;;23.65
71807;BMP280;59655;42.590;23.364;2023-07-24T09:02:35;91794.97;;;23.67
71807;BMP280;59655;42.590;23.364;2023-07-24T09:05:01;91793.03;;;23.69
71807;BMP280;59655;42.590;23.364;2023-07-24T09:07:27;91793.03;;;23.69
71807;BMP280;59655;42.590;23.364;2023-07-24T09:09:52;91787.69;;;23.71
71807;BMP280;59655;42.590;23.364;2023-07-24T09:12:18;91782.34;;;23.74
71807;BMP280;59655;42.590;23.364;2023-07-24T09:14:43;91781.72;;;23.75
71807;BMP280;59655;42.590;23.364;2023-07-24T09:17:10;91781.88;;;23.79
71807;BMP280;59655;42.590;23.364;2023-07-24T09:19:37;91785.97;;;23.80
71807;BMP280;59655;42.590;23.364;2023-07-24T09:22:12;91787.41;;;23.81
71807;BMP280;59655;42.590;23.364;2023-07-24T09:24:49;91784.75;;;23.83
71807;BMP280;59655;42.590;23.364;2023-07-24T09:27:15;91786.19;;;23.86
71807;BMP280;59655;42.590;23.364;2023-07-24T09:29:41;91780.16;;;23.88
71807;BMP280;59655;42.590;23.364;2023-07-24T09:32:07;91776.84;;;23.89
71807;BMP280;59655;42.590;23.364;2023-07-24T09:34:33;91778.94;;;23.91
71807;BMP280;59655;42.590;23.364;2023-07-24T09:36:58;91772.91;;;23.92
71807;BMP280;59655;42.590;23.364;2023-07-24T09:39:27;91767.56;;;23.94
71807;BMP280;59655;42.590;23.364;2023-07-24T09:41:53;91764.28;;;23.98
71807;BMP280;59655;42.590;23.364;2023-07-24T09:44:20;91765.00;;;23.99
71807;BMP280;59655;42.590;23.364;2023-07-24T09:46:45;91757.56;;;23.99
71807;BMP280;59655;42.590;23.364;2023-07-24T09:49:11;91752.34;;;24.05
71807;BMP280;59655;42.590;23.364;2023-07-24T09:51:37;91745.69;;;24.08
71807;BMP280;59655;42.590;23.364;2023-07-24T09:54:13;91745.13;;;24.12
71807;BMP280;59655;42.590;23.364;2023-07-24T09:56:41;91751.41;;;24.16
71807;BMP280;59655;42.590;23.364;2023-07-24T09:59:09;91750.16;;;24.19
71807;BMP280;59655;42.590;23.364;2023-07-24T10:01:36;91740.69;;;24.20
71807;BMP280;59655;42.590;23.364;2023-07-24T10:04:03;91738.03;;;24.23
71807;BMP280;59655;42.590;23.364;2023-07-24T10:06:29;91742.25;;;24.26
71807;BMP280;59655;42.590;23.364;2023-07-24T10:08:55;91735.72;;;24.33
71807;BMP280;59655;42.590;23.364;2023-07-24T10:11:21;91736.47;;;24.35
71807;BMP280;59655;42.590;23.364;2023-07-24T10:13:47;91732.94;;;24.51
71807;BMP280;59655;42.590;23.364;2023-07-24T10:16:13;91736.56;;;24.57
71807;BMP280;59655;42.590;23.364;2023-07-24T10:18:44;91730.03;;;24.64
71807;BMP280;59655;42.590;23.364;2023-07-24T10:21:11;91734.75;;;24.64
71807;BMP280;59655;42.590;23.364;2023-07-24T10:23:41;91726.47;;;24.60
71807;BMP280;59655;42.590;23.364;2023-07-24T10:26:08;91725.91;;;24.63
71807;BMP280;59655;42.590;23.364;2023-07-24T10:28:40;91733.00;;;24.73
71807;BMP280;59655;42.590;23.364;2023-07-24T10:31:24;91718.06;;;24.72
71807;BMP280;59655;42.590;23.364;2023-07-24T10:33:52;91712.22;;;24.79
71807;BMP280;59655;42.590;23.364;2023-07-24T10:36:21;91716.50;;;24.86
71807;BMP280;59655;42.590;23.364;2023-07-24T10:38:53;91719.47;;;24.94
71807;BMP280;59655;42.590;23.364;2023-07-24T10:41:19;91716.19;;;24.98
71807;BMP280;59655;42.590;23.364;2023-07-24T10:43:52;91717.63;;;25.01
71807;BMP280;59655;42.590;23.364;2023-07-24T10:46:23;91715.69;;;25.04
71807;BMP280;59655;42.590;23.364;2023-07-24T10:49:00;91704.28;;;25.07
71807;BMP280;59655;42.590;23.364;2023-07-24T10:51:26;91708.50;;;25.12
71807;BMP280;59655;42.590;23.364;2023-07-24T10:53:51;91710.66;;;25.16
71807;BMP280;59655;42.590;23.364;2023-07-24T10:56:18;91710.66;;;25.16
71807;BMP280;59655;42.590;23.364;2023-07-24T10:58:43;91705.31;;;25.18
71807;BMP280;59655;42.590;23.364;2023-07-24T11:01:09;91698.66;;;25.23
71807;BMP280;59655;42.590;23.364;2023-07-24T11:03:37;91703.47;;;25.25
71807;BMP280;59655;42.590;23.364;2023-07-24T11:06:03;91696.75;;;25.28
71807;BMP280;59655;42.590;23.364;2023-07-24T11:08:29;91699.66;;;25.34
71807;BMP280;59655;42.590;23.364;2023-07-24T11:10:57;91693.91;;;25.45
71807;BMP280;59655;42.590;23.364;2023-07-24T11:13:25;91694.06;;;25.52
71807;BMP280;59655;42.590;23.364;2023-07-24T11:15:51;91685.28;;;25.53
71807;BMP280;59655;42.590;23.364;2023-07-24T11:18:18;91678.97;;;25.46
71807;BMP280;59655;42.590;23.364;2023-07-24T11:20:49;91679.06;;;25.49
71807;BMP280;59655;42.590;23.364;2023-07-24T11:23:15;91673.72;;;25.53
71807;BMP280;59655;42.590;23.364;2023-07-24T11:25:41;91682.63;;;25.55
71807;BMP280;59655;42.590;23.364;2023-07-24T11:28:11;91676.06;;;25.62
71807;BMP280;59655;42.590;23.364;2023-07-24T11:30:36;91669.84;;;25.60
71807;BMP280;59655;42.590;23.364;2023-07-24T11:33:05;91666.69;;;25.67
71807;BMP280;59655;42.590;23.364;2023-07-24T11:35:31;91665.69;;;25.81
71807;BMP280;59655;42.590;23.364;2023-07-24T11:37:57;91665.19;;;25.86
71807;BMP280;59655;42.590;23.364;2023-07-24T11:40:32;91664.59;;;25.90
71807;BMP280;59655;42.590;23.364;2023-07-24T11:42:58;91659.78;;;26.12
71807;BMP280;59655;42.590;23.364;2023-07-24T11:45:23;91659.25;;;26.44
71807;BMP280;59655;42.590;23.364;2023-07-24T11:47:50;91648.69;;;26.30
71807;BMP280;59655;42.590;23.364;2023-07-24T11:50:16;91654.03;;;26.54
71807;BMP280;59655;42.590;23.364;2023-07-24T11:52:47;91649.91;;;27.09
71807;BMP280;59655;42.590;23.364;2023-07-24T11:55:31;91653.50;;;26.88
71807;BMP280;59655;42.590;23.364;2023-07-24T11:57:58;91651.22;;;26.78
71807;BMP280;59655;42.590;23.364;2023-07-24T12:00:24;91648.09;;;26.60
71807;BMP280;59655;42.590;23.364;2023-07-24T12:02:50;91643.25;;;26.58
71807;BMP280;59655;42.590;23.364;2023-07-24T12:05:16;91635.19;;;26.62
71807;BMP280;59655;42.590;23.364;2023-07-24T12:07:43;91643.06;;;26.78
71807;BMP280;59655;42.590;23.364;2023-07-24T12:10:09;91643.66;;;27.35
71807;BMP280;59655;42.590;23.364;2023-07-24T12:12:45;91638.88;;;27.33
71807;BMP280;59655;42.590;23.364;2023-07-24T12:15:12;91627.94;;;27.31
71807;BMP280;59655;42.590;23.364;2023-07-24T12:17:39;91655.13;;;27.59
71807;BMP280;59655;42.590;23.364;2023-07-24T12:20:05;91639.25;;;27.52
71807;BMP280;59655;42.590;23.364;2023-07-24T12:22:33;91644.78;;;27.54
71807;BMP280;59655;42.590;23.364;2023-07-24T12:24:59;91639.97;;;27.86
71807;BMP280;59655;42.590;23.364;2023-07-24T12:27:24;91635.84;;;27.85
71807;BMP280;59655;42.590;23.364;2023-07-24T12:29:51;91634.78;;;28.00
71807;BMP280;59655;42.590;23.364;2023-07-24T12:32:17;91644.75;;;28.26
71807;BMP280;59655;42.590;23.364;2023-07-24T12:34:43;91634.97;;;28.51
71807;BMP280;59655;42.590;23.364;2023-07-24T12:37:08;91638.19;;;28.81
71807;BMP280;59655;42.590;23.364;2023-07-24T12:39:33;91633.81;;;29.08
71807;BMP280;59655;42.590;23.364;2023-07-24T12:41:59;91628.06;;;29.39
71807;BMP280;59655;42.590;23.364;2023-07-24T12:44:24;91625.94;;;29.85
71807;BMP280;59655;42.590;23.364;2023-07-24T12:46:51;91615.78;;;30.75
71807;BMP280;59655;42.590;23.364;2023-07-24T12:49:16;91621.06;;;31.56
71807;BMP280;59655;42.590;23.364;2023-07-24T12:51:42;91627.28;;;31.67
71807;BMP280;59655;42.590;23.364;2023-07-24T12:54:07;91617.81;;;32.31
71807;BMP280;59655;42.590;23.364;2023-07-24T12:56:33;91626.03;;;32.84
71807;BMP280;59655;42.590;23.364;2023-07-24T12:58:58;91621.16;;;33.33
71807;BMP280;59655;42.590;23.364;2023-07-24T13:01:23;91620.25;;;33.76
71807;BMP280;59655;42.590;23.364;2023-07-24T13:03:49;91623.50;;;34.13
71807;BMP280;59655;42.590;23.364;2023-07-24T13:06:15;91606.09;;;34.39
71807;BMP280;59655;42.590;23.364;2023-07-24T13:08:40;91614.19;;;34.61
71807;BMP280;59655;42.590;23.364;2023-07-24T13:11:05;91622.16;;;34.94
71807;BMP280;59655;42.590;23.364;2023-07-24T13:13:31;91611.47;;;34.53
71807;BMP280;59655;42.590;23.364;2023-07-24T13:15:56;91611.09;;;34.12
71807;BMP280;59655;42.590;23.364;2023-07-24T13:18:22;91610.53;;;34.83
71807;BMP280;59655;42.590;23.364;2023-07-24T13:20:47;91613.81;;;35.59
71807;BMP280;59655;42.590;23.364;2023-07-24T13:23:12;91612.41;;;35.62
71807;BMP280;59655;42.590;23.364;2023-07-24T13:25:38;91603.81;;;35.85
71807;BMP280;59655;42.590;23.364;2023-07-24T13:28:03;91596.53;;;35.63
71807;BMP280;59655;42.590;23.364;2023-07-24T13:30:29;91594.91;;;35.80
71807;BMP280;59655;42.590;23.364;2023-07-24T13:32:54;91607.22;;;35.87
71807;BMP280;59655;42.590;23.364;2023-07-24T13:35:20;91615.63;;;35.79
71807;BMP280;59655;42.590;23.364;2023-07-24T13:37:45;91593.63;;;35.73
71807;BMP280;59655;42.590;23.364;2023-07-24T13:40:11;91590.47;;;36.02
71807;BMP280;59655;42.590;23.364;2023-07-24T13:42:36;91585.72;;;36.41
71807;BMP280;59655;42.590;23.364;2023-07-24T13:45:02;91588.50;;;36.39
71807;BMP280;59655;42.590;23.364;2023-07-24T13:47:28;91585.03;;;36.39
71807;BMP280;59655;42.590;23.364;2023-07-24T13:49:53;91587.19;;;36.34
71807;BMP280;59655;42.590;23.364;2023-07-24T13:52:18;91585.19;;;36.29
71807;BMP280;59655;42.590;23.364;2023-07-24T13:54:44;91581.63;;;36.36
71807;BMP280;59655;42.590;23.364;2023-07-24T13:57:09;91579.13;;;36.18
71807;BMP280;59655;42.590;23.364;2023-07-24T13:59:37;91579.03;;;36.26
71807;BMP280;59655;42.590;23.364;2023-07-24T14:02:04;91572.75;;;36.69